sensor_id;sensor_type;location;lat;lon;timestamp;pressure;altitude;pressure_sealevel;temperature;humidity
37291;BME280;23175;-33.706;151.094;2023-08-31T00:00:15;99900.08;;;12.99;52.36
37291;BME280;23175;-33.706;151.094;2023-08-31T00:02:45;99897.77;;;12.81;52.30
37291;BME280;23175;-33.706;151.094;2023-08-31T00:05:15;99893.50;;;13.09;51.79
37291;BME280;23175;-33.706;151.094;2023-08-31T00:07:45;99889.08;;;13.53;50.86
37291;BME280;23175;-33.706;151.094;2023-08-31T00:10:15;99888.52;;;15.46;47.46
37291;BME280;23175;-33.706;151.094;2023-08-31T00:12:45;99886.56;;;12.87;50.78
37291;BME280;23175;-33.706;151.094;2023-08-31T00:15:16;99883.27;;;13.59;50.98
37291;BME280;23175;-33.706;151.094;2023-08-31T00:17:46;99880.90;;;13.93;50.49
37291;BME280;23175;-33.706;151.094;2023-08-31T00:20:16;99879.20;;;12.46;51.82
37291;BME280;23175;-33.706;151.094;2023-08-31T00:22:47;99874.08;;;13.34;50.93
37291;BME280;23175;-33.706;151.094;2023-08-31T00:25:17;99867.72;;;13.67;50.24
37291;BME280;23175;-33.706;151.094;2023-08-31T00:27:47;99862.97;;;14.07;49.51
37291;BME280;23175;-33.706;151.094;2023-08-31T00:30:17;99860.35;;;13.55;50.01
37291;BME280;23175;-33.706;151.094;2023-08-31T00:32:47;99852.79;;;13.22;49.96
37291;BME280;23175;-33.706;151.094;2023-08-31T00:35:17;99853.84;;;11.72;54.17
37291;BME280;23175;-33.706;151.094;2023-08-31T00:37:48;99852.05;;;11.53;53.62
37291;BME280;23175;-33.706;151.094;2023-08-31T00:40:18;99861.54;;;11.34;56.29
37291;BME280;23175;-33.706;151.094;2023-08-31T00:42:48;99869.12;;;10.16;59.43
37291;BME280;23175;-33.706;151.094;2023-08-31T00:45:18;99866.53;;;14.00;51.51
37291;BME280;23175;-33.706;151.094;2023-08-31T00:47:47;99869.29;;;13.43;52.48
37291;BME280;23175;-33.706;151.094;2023-08-31T00:50:18;99869.27;;;14.48;50.19
37291;BME280;23175;-33.706;151.094;2023-08-31T00:52:49;99870.54;;;13.37;52.61
37291;BME280;23175;-33.706;151.094;2023-08-31T00:55:18;99866.06;;;14.12;50.49
37291;BME280;23175;-33.706;151.094;2023-08-31T00:57:48;99866.98;;;14.54;48.77
37291;BME280;23175;-33.706;151.094;2023-08-31T01:00:18;99868.89;;;13.37;52.30
37291;BME280;23175;-33.706;151.094;2023-08-31T01:02:55;99868.75;;;13.46;50.92
37291;BME280;23175;-33.706;151.094;2023-08-31T01:05:40;99862.05;;;12.87;50.24
37291;BME280;23175;-33.706;151.094;2023-08-31T01:08:29;99857.06;;;13.70;49.20
37291;BME280;23175;-33.706;151.094;2023-08-31T01:11:10;99850.75;;;15.43;48.48
37291;BME280;23175;-33.706;151.094;2023-08-31T01:13:44;99853.72;;;13.37;50.12
37291;BME280;23175;-33.706;151.094;2023-08-31T01:16:17;99859.77;;;12.91;50.74
37291;BME280;23175;-33.706;151.094;2023-08-31T01:18:48;99861.21;;;13.55;48.75
37291;BME280;23175;-33.706;151.094;2023-08-31T01:21:27;99857.08;;;12.85;49.44
37291;BME280;23175;-33.706;151.094;2023-08-31T01:23:59;99858.18;;;12.51;50.29
37291;BME280;23175;-33.706;151.094;2023-08-31T01:26:32;99853.78;;;16.34;44.15
37291;BME280;23175;-33.706;151.094;2023-08-31T01:29:02;99848.79;;;13.68;47.10
37291;BME280;23175;-33.706;151.094;2023-08-31T01:31:32;99848.58;;;14.75;46.11
37291;BME280;23175;-33.706;151.094;2023-08-31T01:34:02;99848.37;;;14.39;47.75
37291;BME280;23175;-33.706;151.094;2023-08-31T01:36:37;99848.04;;;12.89;49.24
37291;BME280;23175;-33.706;151.094;2023-08-31T01:39:14;99846.24;;;14.90;45.77
37291;BME280;23175;-33.706;151.094;2023-08-31T01:41:48;99846.76;;;14.38;46.72
37291;BME280;23175;-33.706;151.094;2023-08-31T01:44:21;99846.90;;;13.72;47.56
37291;BME280;23175;-33.706;151.094;2023-08-31T01:47:01;99837.47;;;14.96;46.21
37291;BME280;23175;-33.706;151.094;2023-08-31T01:49:37;99836.89;;;15.04;46.66
37291;BME280;23175;-33.706;151.094;2023-08-31T01:52:08;99835.50;;;14.19;47.72
37291;BME280;23175;-33.706;151.094;2023-08-31T01:54:38;99829.68;;;12.50;50.22
37291;BME280;23175;-33.706;151.094;2023-08-31T01:57:08;99822.41;;;11.83;52.26
37291;BME280;23175;-33.706;151.094;2023-08-31T01:59:38;99815.12;;;14.88;46.17
37291;BME280;23175;-33.706;151.094;2023-08-31T02:02:08;99813.15;;;14.01;48.84
37291;BME280;23175;-33.706;151.094;2023-08-31T02:04:38;99810.71;;;12.70;50.19
37291;BME280;23175;-33.706;151.094;2023-08-31T02:07:08;99802.59;;;14.08;48.75
37291;BME280;23175;-33.706;151.094;2023-08-31T02:09:38;99790.56;;;15.58;45.76
37291;BME280;23175;-33.706;151.094;2023-08-31T02:12:08;99783.82;;;16.39;45.60
37291;BME280;23175;-33.706;151.094;2023-08-31T02:14:38;99780.69;;;13.67;48.32
37291;BME280;23175;-33.706;151.094;2023-08-31T02:17:09;99770.89;;;15.84;43.89
37291;BME280;23175;-33.706;151.094;2023-08-31T02:19:38;99770.20;;;14.92;44.90
37291;BME280;23175;-33.706;151.094;2023-08-31T02:22:17;99768.91;;;13.73;46.53
37291;BME280;23175;-33.706;151.094;2023-08-31T02:24:47;99763.25;;;16.04;43.36
37291;BME280;23175;-33.706;151.094;2023-08-31T02:27:17;99765.32;;;13.82;46.82
37291;BME280;23175;-33.706;151.094;2023-08-31T02:29:48;99750.98;;;14.60;45.86
37291;BME280;23175;-33.706;151.094;2023-08-31T02:32:17;99744.31;;;14.91;44.94
37291;BME280;23175;-33.706;151.094;2023-08-31T02:34:47;99747.48;;;16.07;43.26
37291;BME280;23175;-33.706;151.094;2023-08-31T02:37:16;99743.16;;;15.36;44.31
37291;BME280;23175;-33.706;151.094;2023-08-31T02:39:46;99748.14;;;13.07;47.72
37291;BME280;23175;-33.706;151.094;2023-08-31T02:42:16;99741.05;;;13.32;47.11
37291;BME280;23175;-33.706;151.094;2023-08-31T02:44:46;99741.59;;;13.69;45.90
37291;BME280;23175;-33.706;151.094;2023-08-31T02:47:16;99733.87;;;13.68;46.83
37291;BME280;23175;-33.706;151.094;2023-08-31T02:49:46;99726.38;;;14.24;46.41
37291;BME280;23175;-33.706;151.094;2023-08-31T02:52:21;99720.05;;;14.99;44.67
37291;BME280;23175;-33.706;151.094;2023-08-31T02:54:50;99719.57;;;13.68;46.99
37291;BME280;23175;-33.706;151.094;2023-08-31T02:57:29;99721.86;;;13.01;47.80
37291;BME280;23175;-33.706;151.094;2023-08-31T02:59:59;99715.78;;;15.50;44.33
37291;BME280;23175;-33.706;151.094;2023-08-31T03:02:29;99717.59;;;15.17;45.79
37291;BME280;23175;-33.706;151.094;2023-08-31T03:05:00;99720.14;;;12.72;49.12
37291;BME280;23175;-33.706;151.094;2023-08-31T03:07:30;99713.19;;;14.10;47.42
37291;BME280;23175;-33.706;151.094;2023-08-31T03:10:00;99706.40;;;14.00;47.50
37291;BME280;23175;-33.706;151.094;2023-08-31T03:12:30;99699.29;;;13.51;48.22
37291;BME280;23175;-33.706;151.094;2023-08-31T03:15:01;99690.70;;;14.15;47.13
37291;BME280;23175;-33.706;151.094;2023-08-31T03:17:31;99688.15;;;14.73;46.37
37291;BME280;23175;-33.706;151.094;2023-08-31T03:20:01;99692.28;;;15.08;45.91
37291;BME280;23175;-33.706;151.094;2023-08-31T03:22:30;99692.78;;;13.23;46.33
37291;BME280;23175;-33.706;151.094;2023-08-31T03:25:00;99691.39;;;14.69;43.41
37291;BME280;23175;-33.706;151.094;2023-08-31T03:27:31;99687.12;;;13.96;44.68
37291;BME280;23175;-33.706;151.094;2023-08-31T03:30:00;99684.66;;;14.69;43.29
37291;BME280;23175;-33.706;151.094;2023-08-31T03:32:30;99681.62;;;14.85;42.81
37291;BME280;23175;-33.706;151.094;2023-08-31T03:35:02;99679.10;;;16.36;40.84
37291;BME280;23175;-33.706;151.094;2023-08-31T03:37:32;99681.89;;;15.32;42.53
37291;BME280;23175;-33.706;151.094;2023-08-31T03:40:01;99676.40;;;16.15;42.30
37291;BME280;23175;-33.706;151.094;2023-08-31T03:42:32;99677.25;;;15.19;44.05
37291;BME280;23175;-33.706;151.094;2023-08-31T03:45:08;99677.98;;;14.33;44.06
37291;BME280;23175;-33.706;151.094;2023-08-31T03:47:37;99675.41;;;14.41;44.37
37291;BME280;23175;-33.706;151.094;2023-08-31T03:50:09;99673.20;;;13.68;44.34
37291;BME280;23175;-33.706;151.094;2023-08-31T03:52:38;99671.03;;;14.26;42.91
37291;BME280;23175;-33.706;151.094;2023-08-31T03:55:09;99669.39;;;15.85;41.72
37291;BME280;23175;-33.706;151.094;2023-08-31T03:57:39;99665.56;;;16.63;40.70
37291;BME280;23175;-33.706;151.094;2023-08-31T04:00:10;99671.99;;;13.05;46.04
37291;BME280;23175;-33.706;151.094;2023-08-31T04:02:43;99677.17;;;14.39;44.52
37291;BME280;23175;-33.706;151.094;2023-08-31T04:05:13;99676.67;;;15.51;43.55
37291;BME280;23175;-33.706;151.094;2023-08-31T04:07:43;99684.03;;;14.24;45.29
37291;BME280;23175;-33.706;151.094;2023-08-31T04:10:13;99690.82;;;13.02;45.44
37291;BME280;23175;-33.706;151.094;2023-08-31T04:12:42;99693.69;;;14.27;44.44
37291;BME280;23175;-33.706;151.094;2023-08-31T04:15:12;99696.51;;;13.78;44.91
37291;BME280;23175;-33.706;151.094;2023-08-31T04:17:42;99694.99;;;14.31;43.70
37291;BME280;23175;-33.706;151.094;2023-08-31T04:20:13;99690.10;;;16.24;40.57
37291;BME280;23175;-33.706;151.094;2023-08-31T04:22:43;99685.24;;;15.50;40.84
37291;BME280;23175;-33.706;151.094;2023-08-31T04:25:12;99684.14;;;13.76;43.93
37291;BME280;23175;-33.706;151.094;2023-08-31T04:27:44;99679.53;;;15.40;42.41
37291;BME280;23175;-33.706;151.094;2023-08-31T04:30:14;99676.69;;;15.03;43.33
37291;BME280;23175;-33.706;151.094;2023-08-31T04:32:44;99676.01;;;14.41;44.06
37291;BME280;23175;-33.706;151.094;2023-08-31T04:35:19;99674.31;;;14.07;44.54
37291;BME280;23175;-33.706;151.094;2023-08-31T04:37:48;99678.13;;;14.41;44.07
37291;BME280;23175;-33.706;151.094;2023-08-31T04:40:18;99684.04;;;13.84;43.95
37291;BME280;23175;-33.706;151.094;2023-08-31T04:42:48;99688.20;;;13.72;45.17
37291;BME280;23175;-33.706;151.094;2023-08-31T04:45:18;99694.94;;;13.38;46.05
37291;BME280;23175;-33.706;151.094;2023-08-31T04:47:48;99698.82;;;14.06;44.75
37291;BME280;23175;-33.706;151.094;2023-08-31T04:50:29;99695.67;;;16.55;41.96
37291;BME280;23175;-33.706;151.094;2023-08-31T04:52:58;99694.98;;;13.12;45.63
37291;BME280;23175;-33.706;151.094;2023-08-31T04:55:28;99697.84;;;14.82;43.90
37291;BME280;23175;-33.706;151.094;2023-08-31T04:57:59;99701.73;;;11.89;47.57
37291;BME280;23175;-33.706;151.094;2023-08-31T05:00:33;99701.72;;;13.17;45.85
37291;BME280;23175;-33.706;151.094;2023-08-31T05:03:03;99698.02;;;14.97;43.63
37291;BME280;23175;-33.706;151.094;2023-08-31T05:05:35;99687.16;;;15.85;40.99
37291;BME280;23175;-33.706;151.094;2023-08-31T05:08:07;99686.63;;;15.98;41.43
37291;BME280;23175;-33.706;151.094;2023-08-31T05:10:37;99686.00;;;16.43;40.66
37291;BME280;23175;-33.706;151.094;2023-08-31T05:13:08;99682.54;;;15.99;42.12
37291;BME280;23175;-33.706;151.094;2023-08-31T05:15:37;99685.52;;;15.04;44.62
37291;BME280;23175;-33.706;151.094;2023-08-31T05:18:07;99683.17;;;15.22;45.37
37291;BME280;23175;-33.706;151.094;2023-08-31T05:20:37;99673.28;;;15.59;44.94
37291;BME280;23175;-33.706;151.094;2023-08-31T05:23:07;99671.69;;;14.67;46.35
37291;BME280;23175;-33.706;151.094;2023-08-31T05:25:41;99674.90;;;15.69;44.99
37291;BME280;23175;-33.706;151.094;2023-08-31T05:28:12;99678.07;;;14.87;45.93
37291;BME280;23175;-33.706;151.094;2023-08-31T05:30:49;99676.69;;;15.36;45.54
37291;BME280;23175;-33.706;151.094;2023-08-31T05:33:19;99677.55;;;14.94;46.27
37291;BME280;23175;-33.706;151.094;2023-08-31T05:35:49;99673.98;;;14.96;45.74
37291;BME280;23175;-33.706;151.094;2023-08-31T05:38:19;99676.56;;;15.75;44.77
37291;BME280;23175;-33.706;151.094;2023-08-31T05:40:49;99681.35;;;16.01;44.57
37291;BME280;23175;-33.706;151.094;2023-08-31T05:43:20;99683.48;;;15.55;45.27
37291;BME280;23175;-33.706;151.094;2023-08-31T05:45:50;99685.39;;;14.49;47.41
37291;BME280;23175;-33.706;151.094;2023-08-31T05:48:20;99688.05;;;14.81;47.21
37291;BME280;23175;-33.706;151.094;2023-08-31T05:50:50;99689.81;;;16.01;45.19
37291;BME280;23175;-33.706;151.094;2023-08-31T05:53:20;99690.39;;;15.37;45.04
37291;BME280;23175;-33.706;151.094;2023-08-31T05:55:50;99690.22;;;15.63;46.13
37291;BME280;23175;-33.706;151.094;2023-08-31T05:58:29;99691.81;;;16.51;45.18
37291;BME280;23175;-33.706;151.094;2023-08-31T06:00:59;99697.03;;;15.54;46.48
37291;BME280;23175;-33.706;151.094;2023-08-31T06:03:29;99705.60;;;14.47;48.78
37291;BME280;23175;-33.706;151.094;2023-08-31T06:06:01;99704.67;;;15.50;46.79
37291;BME280;23175;-33.706;151.094;2023-08-31T06:08:31;99704.57;;;16.43;45.15
37291;BME280;23175;-33.706;151.094;2023-08-31T06:11:06;99704.87;;;17.34;42.83
37291;BME280;23175;-33.706;151.094;2023-08-31T06:13:37;99703.84;;;17.10;42.56
37291;BME280;23175;-33.706;151.094;2023-08-31T06:16:07;99702.30;;;17.10;42.77
37291;BME280;23175;-33.706;151.094;2023-08-31T06:18:37;99703.33;;;16.38;43.80
37291;BME280;23175;-33.706;151.094;2023-08-31T06:21:06;99699.32;;;16.76;44.35
37291;BME280;23175;-33.706;151.094;2023-08-31T06:23:37;99699.84;;;14.15;47.25
37291;BME280;23175;-33.706;151.094;2023-08-31T06:26:07;99691.66;;;15.43;46.53
37291;BME280;23175;-33.706;151.094;2023-08-31T06:28:38;99699.03;;;14.88;47.80
37291;BME280;23175;-33.706;151.094;2023-08-31T06:31:08;99696.68;;;14.40;48.73
37291;BME280;23175;-33.706;151.094;2023-08-31T06:33:38;99695.39;;;14.96;47.24
37291;BME280;23175;-33.706;151.094;2023-08-31T06:36:07;99695.01;;;13.80;48.97
37291;BME280;23175;-33.706;151.094;2023-08-31T06:38:37;99691.77;;;14.31;47.97
37291;BME280;23175;-33.706;151.094;2023-08-31T06:41:07;99694.35;;;14.70;47.55
37291;BME280;23175;-33.706;151.094;2023-08-31T06:43:37;99694.51;;;13.98;48.43
37291;BME280;23175;-33.706;151.094;2023-08-31T06:46:07;99696.92;;;15.90;45.15
37291;BME280;23175;-33.706;151.094;2023-08-31T06:48:42;99698.81;;;15.55;46.02
37291;BME280;23175;-33.706;151.094;2023-08-31T06:51:12;99697.44;;;15.29;46.46
37291;BME280;23175;-33.706;151.094;2023-08-31T06:53:43;99701.02;;;14.80;46.80
37291;BME280;23175;-33.706;151.094;2023-08-31T06:56:13;99698.74;;;16.30;45.18
37291;BME280;23175;-33.706;151.094;2023-08-31T06:58:43;99700.43;;;15.34;46.91
37291;BME280;23175;-33.706;151.094;2023-08-31T07:01:14;99702.93;;;13.18;50.89
37291;BME280;23175;-33.706;151.094;2023-08-31T07:03:44;99703.65;;;14.53;48.06
37291;BME280;23175;-33.706;151.094;2023-08-31T07:06:14;99705.37;;;14.61;48.45
37291;BME280;23175;-33.706;151.094;2023-08-31T07:08:45;99707.46;;;16.67;44.26
37291;BME280;23175;-33.706;151.094;2023-08-31T07:11:15;99711.20;;;16.80;44.16
37291;BME280;23175;-33.706;151.094;2023-08-31T07:13:46;99716.57;;;16.38;45.05
37291;BME280;23175;-33.706;151.094;2023-08-31T07:16:16;99717.61;;;16.91;44.37
37291;BME280;23175;-33.706;151.094;2023-08-31T07:18:46;99715.45;;;15.63;45.74
37291;BME280;23175;-33.706;151.094;2023-08-31T07:21:16;99719.71;;;13.35;50.11
37291;BME280;23175;-33.706;151.094;2023-08-31T07:23:46;99716.03;;;16.74;44.85
37291;BME280;23175;-33.706;151.094;2023-08-31T07:26:16;99721.71;;;15.40;47.61
37291;BME280;23175;-33.706;151.094;2023-08-31T07:28:47;99722.29;;;14.09;48.40
37291;BME280;23175;-33.706;151.094;2023-08-31T07:31:17;99727.79;;;15.67;47.07
37291;BME280;23175;-33.706;151.094;2023-08-31T07:33:47;99730.09;;;15.92;46.20
37291;BME280;23175;-33.706;151.094;2023-08-31T07:36:21;99737.83;;;13.27;50.71
37291;BME280;23175;-33.706;151.094;2023-08-31T07:38:52;99732.80;;;15.73;46.22
37291;BME280;23175;-33.706;151.094;2023-08-31T07:41:29;99737.36;;;15.67;47.01
37291;BME280;23175;-33.706;151.094;2023-08-31T07:44:00;99742.41;;;15.10;47.23
37291;BME280;23175;-33.706;151.094;2023-08-31T07:46:31;99742.88;;;15.54;46.15
37291;BME280;23175;-33.706;151.094;2023-08-31T07:49:00;99749.14;;;13.44;49.80
37291;BME280;23175;-33.706;151.094;2023-08-31T07:51:30;99750.92;;;14.98;47.68
37291;BME280;23175;-33.706;151.094;2023-08-31T07:54:02;99752.81;;;16.32;46.12
37291;BME280;23175;-33.706;151.094;2023-08-31T07:56:32;99755.84;;;17.30;44.27
37291;BME280;23175;-33.706;151.094;2023-08-31T07:59:02;99752.20;;;17.68;43.60
37291;BME280;23175;-33.706;151.094;2023-08-31T08:01:33;99751.44;;;17.77;43.22
37291;BME280;23175;-33.706;151.094;2023-08-31T08:04:02;99753.89;;;14.94;46.78
37291;BME280;23175;-33.706;151.094;2023-08-31T08:06:32;99754.29;;;17.41;43.79
37291;BME280;23175;-33.706;151.094;2023-08-31T08:09:02;99758.59;;;17.74;43.31
37291;BME280;23175;-33.706;151.094;2023-08-31T08:11:32;99764.38;;;16.98;43.82
37291;BME280;23175;-33.706;151.094;2023-08-31T08:14:04;99770.65;;;17.04;43.98
37291;BME280;23175;-33.706;151.094;2023-08-31T08:16:34;99775.00;;;17.56;43.85
37291;BME280;23175;-33.706;151.094;2023-08-31T08:19:05;99779.09;;;15.74;45.98
37291;BME280;23175;-33.706;151.094;2023-08-31T08:21:36;99778.80;;;14.91;46.31
37291;BME280;23175;-33.706;151.094;2023-08-31T08:24:06;99780.20;;;15.64;47.23
37291;BME280;23175;-33.706;151.094;2023-08-31T08:26:36;99775.85;;;16.36;45.24
37291;BME280;23175;-33.706;151.094;2023-08-31T08:29:06;99775.07;;;17.22;44.51
37291;BME280;23175;-33.706;151.094;2023-08-31T08:31:41;99778.36;;;16.33;45.66
37291;BME280;23175;-33.706;151.094;2023-08-31T08:34:12;99778.58;;;17.62;44.17
37291;BME280;23175;-33.706;151.094;2023-08-31T08:36:41;99780.86;;;15.56;46.81
37291;BME280;23175;-33.706;151.094;2023-08-31T08:39:11;99780.14;;;16.47;45.44
37291;BME280;23175;-33.706;151.094;2023-08-31T08:41:42;99777.19;;;16.79;45.19
37291;BME280;23175;-33.706;151.094;2023-08-31T08:44:14;99781.50;;;16.37;45.64
37291;BME280;23175;-33.706;151.094;2023-08-31T08:46:47;99788.11;;;15.16;47.88
37291;BME280;23175;-33.706;151.094;2023-08-31T08:49:18;99793.85;;;15.55;46.37
37291;BME280;23175;-33.706;151.094;2023-08-31T08:51:49;99802.10;;;15.83;46.35
37291;BME280;23175;-33.706;151.094;2023-08-31T08:54:20;99803.17;;;16.51;45.28
37291;BME280;23175;-33.706;151.094;2023-08-31T08:56:52;99807.72;;;16.89;44.96
37291;BME280;23175;-33.706;151.094;2023-08-31T08:59:21;99806.67;;;17.14;44.31
37291;BME280;23175;-33.706;151.094;2023-08-31T09:01:57;99804.96;;;16.95;44.40
37291;BME280;23175;-33.706;151.094;2023-08-31T09:04:32;99812.76;;;16.33;45.69
37291;BME280;23175;-33.706;151.094;2023-08-31T09:07:07;99817.00;;;16.66;45.00
37291;BME280;23175;-33.706;151.094;2023-08-31T09:09:49;99825.05;;;14.71;48.26
37291;BME280;23175;-33.706;151.094;2023-08-31T09:12:21;99828.24;;;16.21;45.71
37291;BME280;23175;-33.706;151.094;2023-08-31T09:15:03;99833.72;;;16.57;45.48
37291;BME280;23175;-33.706;151.094;2023-08-31T09:17:44;99844.59;;;16.25;45.32
37291;BME280;23175;-33.706;151.094;2023-08-31T09:20:14;99855.69;;;16.11;45.56
37291;BME280;23175;-33.706;151.094;2023-08-31T09:22:44;99865.13;;;16.88;45.30
37291;BME280;23175;-33.706;151.094;2023-08-31T09:25:15;99871.65;;;16.14;45.87
37291;BME280;23175;-33.706;151.094;2023-08-31T09:27:45;99876.24;;;16.15;45.38
37291;BME280;23175;-33.706;151.094;2023-08-31T09:30:16;99879.90;;;16.37;45.35
37291;BME280;23175;-33.706;151.094;2023-08-31T09:32:53;99886.42;;;16.31;45.55
37291;BME280;23175;-33.706;151.094;2023-08-31T09:35:28;99893.37;;;16.01;46.01
37291;BME280;23175;-33.706;151.094;2023-08-31T09:38:03;99896.76;;;16.57;45.63
37291;BME280;23175;-33.706;151.094;2023-08-31T09:40:33;99900.45;;;16.58;45.56
37291;BME280;23175;-33.706;151.094;2023-08-31T09:43:04;99907.00;;;16.61;45.60
37291;BME280;23175;-33.706;151.094;2023-08-31T09:45:35;99905.92;;;15.90;46.31
37291;BME280;23175;-33.706;151.094;2023-08-31T09:48:07;99904.45;;;16.33;46.16
37291;BME280;23175;-33.706;151.094;2023-08-31T09:50:39;99909.32;;;16.09;46.19
37291;BME280;23175;-33.706;151.094;2023-08-31T09:53:11;99920.11;;;15.91;45.90
37291;BME280;23175;-33.706;151.094;2023-08-31T09:55:43;99921.53;;;15.96;45.78
37291;BME280;23175;-33.706;151.094;2023-08-31T09:58:16;99923.75;;;16.26;45.57
37291;BME280;23175;-33.706;151.094;2023-08-31T10:00:48;99922.48;;;16.33;45.74
37291;BME280;23175;-33.706;151.094;2023-08-31T10:03:20;99930.40;;;16.73;45.82
37291;BME280;23175;-33.706;151.094;2023-08-31T10:05:51;99941.63;;;16.63;45.49
37291;BME280;23175;-33.706;151.094;2023-08-31T10:08:21;99943.03;;;16.67;45.48
37291;BME280;23175;-33.706;151.094;2023-08-31T10:10:51;99948.98;;;16.45;45.67
37291;BME280;23175;-33.706;151.094;2023-08-31T10:13:29;99955.03;;;16.58;45.49
37291;BME280;23175;-33.706;151.094;2023-08-31T10:16:00;99954.55;;;16.32;45.22
37291;BME280;23175;-33.706;151.094;2023-08-31T10:18:31;99953.64;;;16.19;45.43
37291;BME280;23175;-33.706;151.094;2023-08-31T10:21:02;99953.27;;;15.92;46.89
37291;BME280;23175;-33.706;151.094;2023-08-31T10:23:33;99949.78;;;15.85;46.59
37291;BME280;23175;-33.706;151.094;2023-08-31T10:26:04;99942.94;;;16.19;46.30
37291;BME280;23175;-33.706;151.094;2023-08-31T10:28:41;99951.06;;;16.52;46.12
37291;BME280;23175;-33.706;151.094;2023-08-31T10:31:18;99948.85;;;16.65;45.87
37291;BME280;23175;-33.706;151.094;2023-08-31T10:33:55;99951.73;;;15.86;46.15
37291;BME280;23175;-33.706;151.094;2023-08-31T10:36:38;99954.47;;;16.48;46.24
37291;BME280;23175;-33.706;151.094;2023-08-31T10:39:12;99950.07;;;15.77;46.11
37291;BME280;23175;-33.706;151.094;2023-08-31T10:41:51;99952.68;;;15.94;46.29
37291;BME280;23175;-33.706;151.094;2023-08-31T10:44:22;99958.13;;;15.87;45.94
37291;BME280;23175;-33.706;151.094;2023-08-31T10:46:53;99960.30;;;16.48;46.00
37291;BME280;23175;-33.706;151.094;2023-08-31T10:49:28;99959.02;;;16.48;45.92
37291;BME280;23175;-33.706;151.094;2023-08-31T10:52:14;99952.65;;;16.25;46.28
37291;BME280;23175;-33.706;151.094;2023-08-31T10:54:45;99957.53;;;16.36;45.85
37291;BME280;23175;-33.706;151.094;2023-08-31T10:57:16;99953.80;;;16.16;46.03
37291;BME280;23175;-33.706;151.094;2023-08-31T10:59:48;99952.19;;;15.66;46.23
37291;BME280;23175;-33.706;151.094;2023-08-31T11:02:37;99949.31;;;15.78;46.65
37291;BME280;23175;-33.706;151.094;2023-08-31T11:05:11;99946.90;;;15.73;46.43
37291;BME280;23175;-33.706;151.094;2023-08-31T11:07:42;99948.31;;;15.84;46.34
37291;BME280;23175;-33.706;151.094;2023-08-31T11:10:15;99947.23;;;15.79;46.53
37291;BME280;23175;-33.706;151.094;2023-08-31T11:12:47;99942.98;;;15.99;46.41
37291;BME280;23175;-33.706;151.094;2023-08-31T11:15:19;99945.20;;;15.54;46.53
37291;BME280;23175;-33.706;151.094;2023-08-31T11:17:52;99942.10;;;15.38;46.07
37291;BME280;23175;-33.706;151.094;2023-08-31T11:20:29;99948.85;;;15.77;46.40
37291;BME280;23175;-33.706;151.094;2023-08-31T11:23:00;99945.09;;;15.61;46.62
37291;BME280;23175;-33.706;151.094;2023-08-31T11:25:32;99938.55;;;15.38;46.44
37291;BME280;23175;-33.706;151.094;2023-08-31T11:28:08;99930.92;;;15.34;46.41
37291;BME280;23175;-33.706;151.094;2023-08-31T11:30:38;99924.63;;;15.06;46.77
37291;BME280;23175;-33.706;151.094;2023-08-31T11:33:09;99918.51;;;15.21;46.54
37291;BME280;23175;-33.706;151.094;2023-08-31T11:35:43;99908.13;;;15.89;46.45
37291;BME280;23175;-33.706;151.094;2023-08-31T11:38:13;99910.67;;;15.65;46.69
37291;BME280;23175;-33.706;151.094;2023-08-31T11:40:44;99913.60;;;14.90;46.78
37291;BME280;23175;-33.706;151.094;2023-08-31T11:43:16;99910.85;;;14.86;46.39
37291;BME280;23175;-33.706;151.094;2023-08-31T11:45:46;99906.66;;;15.30;46.15
37291;BME280;23175;-33.706;151.094;2023-08-31T11:48:17;99899.47;;;14.17;47.75
37291;BME280;23175;-33.706;151.094;2023-08-31T11:50:47;99891.89;;;14.62;47.23
37291;BME280;23175;-33.706;151.094;2023-08-31T11:53:18;99888.71;;;14.93;47.14
37291;BME280;23175;-33.706;151.094;2023-08-31T11:55:55;99888.51;;;14.46;47.25
37291;BME280;23175;-33.706;151.094;2023-08-31T11:58:30;99885.50;;;14.70;47.13
37291;BME280;23175;-33.706;151.094;2023-08-31T12:01:00;99885.78;;;14.77;46.90
37291;BME280;23175;-33.706;151.094;2023-08-31T12:03:44;99888.07;;;14.49;46.82
37291;BME280;23175;-33.706;151.094;2023-08-31T12:06:16;99886.94;;;14.70;47.05
37291;BME280;23175;-33.706;151.094;2023-08-31T12:08:52;99891.64;;;15.01;46.61
37291;BME280;23175;-33.706;151.094;2023-08-31T12:11:28;99894.11;;;14.54;46.81
37291;BME280;23175;-33.706;151.094;2023-08-31T12:14:01;99894.43;;;14.99;46.30
37291;BME280;23175;-33.706;151.094;2023-08-31T12:16:34;99891.80;;;14.66;46.75
37291;BME280;23175;-33.706;151.094;2023-08-31T12:19:05;99902.28;;;14.59;46.75
37291;BME280;23175;-33.706;151.094;2023-08-31T12:21:36;99909.19;;;14.85;46.30
37291;BME280;23175;-33.706;151.094;2023-08-31T12:24:07;99908.58;;;14.50;46.53
37291;BME280;23175;-33.706;151.094;2023-08-31T12:26:42;99907.83;;;14.01;47.17
37291;BME280;23175;-33.706;151.094;2023-08-31T12:29:12;99902.95;;;14.17;46.90
37291;BME280;23175;-33.706;151.094;2023-08-31T12:31:43;99904.49;;;14.15;46.99
37291;BME280;23175;-33.706;151.094;2023-08-31T12:34:13;99905.76;;;14.30;46.76
37291;BME280;23175;-33.706;151.094;2023-08-31T12:36:43;99917.32;;;14.36;46.61
37291;BME280;23175;-33.706;151.094;2023-08-31T12:39:13;99924.50;;;14.12;47.01
37291;BME280;23175;-33.706;151.094;2023-08-31T12:41:42;99926.02;;;14.31;46.38
37291;BME280;23175;-33.706;151.094;2023-08-31T12:44:12;99921.57;;;14.37;46.32
37291;BME280;23175;-33.706;151.094;2023-08-31T12:46:43;99920.06;;;14.52;46.22
37291;BME280;23175;-33.706;151.094;2023-08-31T12:49:13;99916.53;;;14.51;46.29
37291;BME280;23175;-33.706;151.094;2023-08-31T12:51:44;99918.84;;;14.19;46.71